createdAt,value
2022-11-02T00:01:52.610Z,13.60
2022-11-02T00:04:26.490Z,13.60
2022-11-02T00:06:53.541Z,13.60
2022-11-02T00:09:27.544Z,13.60
2022-11-02T00:11:54.605Z,13.60
2022-11-02T00:14:28.530Z,13.60
2022-11-02T00:16:55.836Z,13.60
2022-11-02T00:19:29.586Z,13.60
2022-11-02T00:22:05.544Z,13.50
2022-11-02T00:24:33.449Z,13.50
2022-11-02T00:27:07.530Z,13.40
2022-11-02T00:29:41.675Z,13.40
2022-11-02T00:32:08.859Z,13.40
2022-11-02T00:34:42.523Z,13.40
2022-11-02T00:37:09.640Z,13.40
2022-11-02T00:42:31.468Z,13.50
2022-11-02T00:45:05.629Z,13.50
2022-11-02T00:47:32.773Z,13.50
2022-11-02T00:50:06.524Z,13.40
2022-11-02T00:52:40.511Z,13.40
2022-11-02T00:55:15.544Z,13.40
2022-11-02T00:57:42.497Z,13.40
2022-11-02T01:00:17.579Z,13.40
2022-11-02T01:02:57.575Z,13.50
2022-11-02T01:05:24.664Z,13.50
2022-11-02T01:07:59.520Z,13.50
2022-11-02T01:10:26.579Z,13.50
2022-11-02T01:13:00.560Z,13.50
2022-11-02T01:15:27.893Z,13.50
2022-11-02T01:18:01.761Z,13.50
2022-11-02T01:20:29.074Z,13.50
2022-11-02T01:23:05.479Z,13.50
2022-11-02T01:25:39.520Z,13.50
2022-11-02T01:28:13.574Z,13.50
2022-11-02T01:30:40.840Z,13.50
2022-11-02T01:33:14.524Z,13.50
2022-11-02T01:35:41.649Z,13.40
2022-11-02T01:38:15.598Z,13.50
2022-11-02T01:40:49.567Z,13.50
2022-11-02T01:43:26.598Z,13.50
2022-11-02T01:46:08.617Z,13.50
2022-11-02T01:49:10.627Z,13.50
2022-11-02T01:52:04.801Z,13.50
2022-11-02T01:54:44.548Z,13.50
2022-11-02T01:57:17.328Z,13.50
2022-11-02T01:59:57.607Z,13.50
2022-11-02T02:02:35.250Z,13.50
2022-11-02T02:05:17.647Z,13.50
2022-11-02T02:07:45.357Z,13.50
2022-11-02T02:10:19.557Z,13.50
2022-11-02T02:12:48.034Z,13.50
2022-11-02T02:15:21.539Z,13.50
2022-11-02T02:18:04.209Z,13.40
2022-11-02T02:20:56.544Z,13.40
2022-11-02T02:24:07.644Z,13.40
2022-11-02T02:26:50.525Z,13.40
2022-11-02T02:29:29.164Z,13.40
2022-11-02T02:32:11.565Z,13.40
2022-11-02T02:34:52.055Z,13.40
2022-11-02T02:37:44.555Z,13.40
2022-11-02T02:40:31.839Z,13.40
2022-11-02T02:43:17.642Z,13.40
2022-11-02T02:45:56.549Z,13.40
2022-11-02T02:48:32.584Z,13.40
2022-11-02T02:51:22.601Z,13.40
2022-11-02T02:53:55.036Z,13.40
2022-11-02T02:56:32.607Z,13.40
2022-11-02T02:59:22.494Z,13.40
2022-11-02T03:02:03.709Z,13.40
2022-11-02T03:04:40.345Z,13.40
2022-11-02T03:07:19.619Z,13.40
2022-11-02T03:09:52.661Z,13.30
2022-11-02T03:12:57.592Z,13.30
2022-11-02T03:15:37.825Z,13.30
2022-11-02T03:18:34.575Z,13.20
2022-11-02T03:21:20.568Z,13.20
2022-11-02T03:24:06.149Z,13.20
2022-11-02T03:26:50.555Z,13.10
2022-11-02T03:29:36.844Z,13.10
2022-11-02T03:32:26.584Z,13.00
2022-11-02T03:34:58.454Z,13.00
2022-11-02T03:37:52.541Z,13.00
2022-11-02T03:40:33.654Z,13.00
2022-11-02T03:43:09.607Z,13.00
2022-11-02T03:45:47.538Z,13.00
2022-11-02T03:48:22.610Z,12.90
2022-11-02T03:50:50.769Z,12.90
2022-11-02T03:53:41.584Z,12.90
2022-11-02T03:56:14.699Z,12.80
2022-11-02T03:58:48.594Z,12.90
2022-11-02T04:01:24.814Z,12.80
2022-11-02T04:04:04.585Z,12.80
2022-11-02T04:06:39.650Z,12.80
2022-11-02T04:09:06.565Z,12.70
2022-11-02T04:11:58.570Z,12.60
2022-11-02T04:14:48.627Z,12.60
2022-11-02T04:17:40.599Z,12.50
2022-11-02T04:20:08.720Z,12.50
2022-11-02T04:23:05.580Z,12.50
2022-11-02T04:25:45.813Z,12.50
2022-11-02T04:28:13.029Z,12.50
2022-11-02T04:30:46.628Z,12.40
2022-11-02T04:33:32.529Z,12.40
2022-11-02T04:36:10.618Z,12.40
2022-11-02T04:38:40.681Z,12.30
2022-11-02T04:41:41.592Z,12.30
2022-11-02T04:44:09.869Z,12.30
2022-11-02T04:46:45.614Z,12.20
2022-11-02T04:49:12.840Z,12.20
2022-11-02T04:51:49.856Z,12.20
2022-11-02T04:54:23.595Z,12.20
2022-11-02T04:56:50.646Z,12.10
2022-11-02T04:59:24.708Z,12.10
2022-11-02T05:01:58.847Z,12.10
2022-11-02T05:04:39.661Z,12.10
2022-11-02T05:07:14.585Z,12.10
2022-11-02T05:09:50.630Z,12.10
2022-11-02T05:12:29.061Z,12.10
2022-11-02T05:15:02.581Z,12.10
2022-11-02T05:17:29.666Z,12.10
2022-11-02T05:20:03.705Z,12.10
2022-11-02T05:22:31.902Z,12.10
2022-11-02T05:25:05.565Z,12.20
2022-11-02T05:27:39.605Z,12.20
2022-11-02T05:30:07.419Z,12.30
2022-11-02T05:32:41.636Z,12.30
2022-11-02T05:35:09.357Z,12.40
2022-11-02T05:37:43.579Z,12.40
2022-11-02T05:40:11.380Z,12.40
2022-11-02T05:42:44.611Z,12.40
2022-11-02T05:45:22.050Z,12.50
2022-11-02T05:47:51.880Z,12.50
2022-11-02T05:50:25.592Z,12.50
2022-11-02T05:52:53.096Z,12.50
2022-11-02T05:55:26.586Z,12.50
2022-11-02T05:58:01.557Z,12.50
2022-11-02T06:00:34.785Z,12.50
2022-11-02T06:03:15.611Z,12.50
2022-11-02T06:05:49.775Z,12.50
2022-11-02T06:08:16.983Z,12.50
2022-11-02T06:10:51.699Z,12.50
2022-11-02T06:13:18.837Z,12.50
2022-11-02T06:15:52.614Z,12.60
2022-11-02T06:18:19.716Z,12.60
2022-11-02T06:20:53.622Z,12.60
2022-11-02T06:23:20.779Z,12.70
2022-11-02T06:26:02.605Z,12.80
2022-11-02T06:28:31.281Z,12.80
2022-11-02T06:31:05.610Z,12.90
2022-11-02T06:33:32.944Z,12.90
2022-11-02T06:36:06.589Z,12.90
2022-11-02T06:38:33.694Z,12.90
2022-11-02T06:41:10.755Z,12.90
2022-11-02T06:43:45.634Z,12.90
2022-11-02T06:46:12.994Z,12.90
2022-11-02T06:48:46.574Z,13.00
2022-11-02T06:51:13.696Z,13.00
2022-11-02T06:53:47.633Z,13.00
2022-11-02T06:56:15.233Z,13.00
2022-11-02T06:58:48.592Z,13.10
2022-11-02T07:01:35.736Z,13.10
2022-11-02T07:04:10.737Z,13.20
2022-11-02T07:06:37.886Z,13.20
2022-11-02T07:09:11.611Z,13.20
2022-11-02T07:11:38.695Z,13.30
2022-11-02T07:14:12.626Z,13.30
2022-11-02T07:16:39.766Z,13.30
2022-11-02T07:19:16.663Z,13.30
2022-11-02T07:21:46.691Z,13.30
2022-11-02T07:24:21.625Z,13.30
2022-11-02T07:26:51.594Z,13.40
2022-11-02T07:29:25.660Z,13.40
2022-11-02T07:31:52.724Z,13.50
2022-11-02T07:34:26.850Z,13.50
2022-11-02T07:36:55.804Z,13.60
2022-11-02T07:39:29.645Z,13.60
2022-11-02T07:41:56.750Z,13.60
2022-11-02T07:44:30.632Z,13.60
2022-11-02T07:46:57.977Z,13.60
2022-11-02T07:49:31.743Z,13.60
2022-11-02T07:51:58.874Z,13.60
2022-11-02T07:54:32.574Z,13.60
2022-11-02T07:57:06.646Z,13.70
2022-11-02T07:59:40.649Z,13.70
2022-11-02T08:02:27.660Z,13.70
2022-11-02T08:04:54.724Z,13.80
2022-11-02T08:07:29.695Z,13.90
2022-11-02T08:10:03.637Z,13.90
2022-11-02T08:12:30.836Z,14.00
2022-11-02T08:15:00.377Z,14.00
2022-11-02T08:17:36.658Z,14.00
2022-11-02T08:20:10.647Z,14.10
2022-11-02T08:22:38.933Z,14.10
2022-11-02T08:25:13.683Z,14.20
2022-11-02T08:27:40.753Z,14.20
2022-11-02T08:30:15.669Z,14.30
2022-11-02T08:32:43.092Z,14.30
2022-11-02T08:35:16.682Z,14.30
2022-11-02T08:37:43.858Z,14.30
2022-11-02T08:40:18.619Z,14.30
2022-11-02T08:42:45.861Z,14.30
2022-11-02T08:45:19.636Z,14.30
2022-11-02T08:47:46.793Z,14.30
2022-11-02T08:50:20.710Z,14.30
2022-11-02T08:52:47.905Z,14.30
2022-11-02T08:55:21.621Z,14.30
2022-11-02T08:58:00.674Z,14.30
2022-11-02T09:00:37.712Z,14.30
2022-11-02T09:03:25.081Z,14.30
2022-11-02T09:06:02.090Z,14.30
2022-11-02T09:08:36.633Z,14.30
2022-11-02T09:11:04.224Z,14.30
2022-11-02T09:13:37.707Z,14.30
2022-11-02T09:16:08.838Z,14.30
2022-11-02T09:18:43.611Z,14.40
2022-11-02T09:21:17.665Z,14.40
2022-11-02T09:23:48.551Z,14.40
2022-11-02T09:26:22.681Z,14.40
2022-11-02T09:28:56.669Z,14.40
2022-11-02T09:31:23.971Z,14.50
2022-11-02T09:33:57.687Z,14.60
2022-11-02T09:36:24.840Z,14.70
2022-11-02T09:38:58.765Z,14.90
2022-11-02T09:41:47.633Z,15.10
2022-11-02T09:44:31.634Z,15.30
2022-11-02T09:47:49.627Z,15.50
2022-11-02T09:49:52.651Z,15.60
2022-11-02T09:52:33.345Z,15.80
2022-11-02T09:55:17.756Z,16.10
2022-11-02T09:57:55.785Z,16.20
2022-11-02T10:00:29.734Z,16.40
2022-11-02T10:03:41.665Z,16.50
2022-11-02T10:06:15.715Z,16.60
2022-11-02T10:08:53.602Z,16.80
2022-11-02T10:11:46.301Z,16.90
2022-11-02T10:14:39.251Z,16.90
2022-11-02T10:17:28.657Z,17.00
2022-11-02T10:20:03.896Z,17.20
2022-11-02T10:22:46.677Z,17.40
2022-11-02T10:25:16.661Z,17.40
2022-11-02T10:27:52.718Z,17.40
2022-11-02T10:30:21.726Z,17.40
2022-11-02T10:32:59.687Z,17.40
2022-11-02T10:35:57.279Z,17.50
2022-11-02T10:38:51.717Z,17.50
2022-11-02T10:41:49.698Z,17.70
2022-11-02T10:44:48.052Z,17.90
2022-11-02T10:47:24.547Z,18.00
2022-11-02T10:50:16.659Z,18.20
2022-11-02T10:52:46.148Z,18.40
2022-11-02T10:56:18.746Z,18.50
2022-11-02T10:59:09.651Z,18.70
2022-11-02T11:02:00.750Z,18.80
2022-11-02T11:04:30.073Z,19.00
2022-11-02T11:07:04.666Z,19.00
2022-11-02T11:09:57.477Z,19.00
2022-11-02T11:12:39.718Z,18.80
2022-11-02T11:21:03.779Z,18.50
2022-11-02T11:23:31.001Z,18.30
2022-11-02T11:26:33.677Z,18.20
2022-11-02T11:29:00.791Z,18.00
2022-11-02T11:31:34.641Z,17.90
2022-11-02T11:34:10.691Z,17.80
2022-11-02T11:36:37.933Z,17.70
2022-11-02T11:39:37.007Z,17.60
2022-11-02T11:42:18.413Z,17.70
2022-11-02T11:45:12.807Z,17.70
2022-11-02T11:47:42.831Z,17.80
2022-11-02T11:50:28.168Z,17.90
2022-11-02T11:53:20.817Z,18.00
2022-11-02T11:55:59.630Z,18.10
2022-11-02T11:59:10.685Z,18.20
2022-11-02T12:01:53.852Z,18.20
2022-11-02T12:04:39.704Z,18.30
2022-11-02T12:07:09.549Z,18.30
2022-11-02T12:09:48.685Z,18.30
2022-11-02T12:12:34.240Z,18.30
2022-11-02T12:15:30.749Z,18.30
2022-11-02T12:18:20.019Z,18.30
2022-11-02T12:20:55.686Z,18.20
2022-11-02T12:23:31.715Z,18.20
2022-11-02T12:26:21.947Z,18.10
2022-11-02T12:29:18.682Z,18.00
2022-11-02T12:32:00.864Z,18.00
2022-11-02T12:35:28.558Z,17.90
2022-11-02T12:38:37.715Z,17.90
2022-11-02T12:41:18.673Z,17.80
2022-11-02T12:44:01.714Z,17.70
2022-11-02T12:46:49.200Z,17.60
2022-11-02T12:49:49.669Z,17.50
2022-11-02T12:52:26.677Z,17.50
2022-11-02T12:55:03.060Z,17.40
2022-11-02T12:57:42.843Z,17.30
2022-11-02T13:00:26.267Z,17.30
2022-11-02T13:03:15.650Z,17.20
2022-11-02T13:05:54.251Z,17.20
2022-11-02T13:08:56.708Z,17.20
2022-11-02T13:11:34.460Z,17.20
2022-11-02T13:14:15.562Z,17.20
2022-11-02T13:17:09.874Z,17.10
2022-11-02T13:20:08.669Z,17.10
2022-11-02T13:22:41.244Z,17.10
2022-11-02T13:25:29.735Z,17.00
2022-11-02T13:28:17.480Z,17.00
2022-11-02T13:30:52.751Z,17.00
2022-11-02T13:33:45.995Z,17.00
2022-11-02T13:36:20.693Z,17.00
2022-11-02T13:39:00.751Z,17.00
2022-11-02T13:41:48.733Z,17.00
2022-11-02T13:44:36.712Z,17.00
2022-11-02T13:47:36.249Z,16.90
2022-11-02T13:50:11.794Z,16.90
2022-11-02T13:52:41.064Z,16.80
2022-11-02T13:55:22.759Z,16.80
2022-11-02T13:57:59.141Z,16.80
2022-11-02T14:00:39.914Z,16.90
2022-11-02T14:03:23.702Z,16.90
2022-11-02T14:05:58.151Z,16.90
2022-11-02T14:08:40.663Z,16.90
2022-11-02T14:11:17.757Z,16.90
2022-11-02T14:14:10.714Z,16.90
2022-11-02T14:16:56.759Z,16.80
2022-11-02T14:19:55.804Z,16.70
2022-11-02T14:22:29.726Z,16.70
2022-11-02T14:25:15.721Z,16.70
2022-11-02T14:27:49.764Z,16.60
2022-11-02T14:30:51.838Z,16.60
2022-11-02T14:33:49.504Z,16.50
2022-11-02T14:36:22.717Z,16.50
2022-11-02T14:39:14.317Z,16.50
2022-11-02T14:42:30.751Z,16.50
2022-11-02T14:45:14.756Z,16.50
2022-11-02T14:47:42.155Z,16.40
2022-11-02T14:50:26.756Z,16.40
2022-11-02T14:53:35.716Z,16.30
2022-11-02T14:56:03.941Z,16.30
2022-11-02T14:58:54.744Z,16.20
2022-11-02T15:01:22.469Z,16.20
2022-11-02T15:04:02.727Z,16.10
2022-11-02T15:06:32.203Z,16.10
2022-11-02T15:09:07.811Z,16.10
2022-11-02T15:11:54.696Z,16.00
2022-11-02T15:14:38.100Z,16.00
2022-11-02T15:17:17.697Z,15.90
2022-11-02T15:19:47.282Z,15.90
2022-11-02T15:22:38.725Z,15.90
2022-11-02T15:25:16.688Z,15.80
2022-11-02T15:27:51.700Z,15.80
2022-11-02T15:30:26.977Z,15.80
2022-11-02T15:33:06.958Z,15.80
2022-11-02T15:35:37.367Z,15.70
2022-11-02T15:38:24.098Z,15.70
2022-11-02T15:41:29.705Z,15.70
2022-11-02T15:44:25.732Z,15.60
2022-11-02T15:47:09.781Z,15.50
2022-11-02T15:49:50.782Z,15.40
2022-11-02T15:53:09.049Z,15.30
2022-11-02T15:56:19.701Z,15.20
2022-11-02T15:59:17.735Z,15.20
2022-11-02T16:01:58.961Z,15.10
2022-11-02T16:04:33.786Z,15.10
2022-11-02T16:07:12.766Z,15.00
2022-11-02T16:09:40.818Z,14.90
2022-11-02T16:12:30.800Z,14.90
2022-11-02T16:15:18.767Z,14.80
2022-11-02T16:17:50.440Z,14.80
2022-11-02T16:20:36.744Z,14.70
2022-11-02T16:23:05.785Z,14.70
2022-11-02T16:25:55.798Z,14.60
2022-11-02T16:28:32.775Z,14.50
2022-11-02T16:31:12.460Z,14.50
2022-11-02T16:33:58.768Z,14.40
2022-11-02T16:36:32.191Z,14.40
2022-11-02T16:39:23.741Z,14.40
2022-11-02T16:41:52.735Z,14.30
2022-11-02T16:44:46.994Z,14.30
2022-11-02T16:47:18.954Z,14.20
2022-11-02T16:49:58.745Z,14.30
2022-11-02T16:52:34.851Z,14.30
2022-11-02T16:55:08.736Z,14.30
2022-11-02T16:57:45.468Z,14.30
2022-11-02T17:00:25.721Z,14.30
2022-11-02T17:02:59.950Z,14.20
2022-11-02T17:05:40.710Z,14.20
2022-11-02T17:08:21.150Z,14.20
2022-11-02T17:10:56.718Z,14.20
2022-11-02T17:13:27.120Z,14.20
2022-11-02T17:16:03.760Z,14.20
2022-11-02T17:18:30.951Z,14.20
2022-11-02T17:21:19.732Z,14.20
2022-11-02T17:23:54.800Z,14.20
2022-11-02T17:26:33.762Z,14.20
2022-11-02T17:29:03.850Z,14.20
2022-11-02T17:31:44.822Z,14.20
2022-11-02T17:34:27.130Z,14.20
2022-11-02T17:36:54.324Z,14.20
2022-11-02T17:39:27.762Z,14.20
2022-11-02T17:42:15.355Z,14.20
2022-11-02T17:44:51.790Z,14.10
2022-11-02T17:47:19.129Z,14.10
2022-11-02T17:49:54.121Z,14.10
2022-11-02T17:52:21.599Z,14.10
2022-11-02T17:54:54.845Z,14.10
2022-11-02T17:57:28.805Z,14.10
2022-11-02T18:00:02.790Z,14.10
2022-11-02T18:02:37.130Z,14.00
2022-11-02T18:05:45.118Z,13.90
2022-11-02T18:08:15.919Z,13.90
2022-11-02T18:11:01.819Z,13.80
2022-11-02T18:13:28.966Z,13.70
2022-11-02T18:16:03.765Z,13.60
2022-11-02T18:18:30.837Z,13.60
2022-11-02T18:21:04.784Z,13.60
2022-11-02T18:23:33.234Z,13.50
2022-11-02T18:26:06.815Z,13.40
2022-11-02T18:28:34.984Z,13.40
2022-11-02T18:31:08.833Z,13.30
2022-11-02T18:33:36.027Z,13.30
2022-11-02T18:36:14.749Z,13.20
2022-11-02T18:38:42.461Z,13.20
2022-11-02T18:41:37.428Z,13.20
2022-11-02T18:44:11.971Z,13.20
2022-11-02T18:46:48.778Z,13.30
2022-11-02T18:49:15.852Z,13.20
2022-11-02T18:51:50.746Z,13.20
2022-11-02T18:54:18.246Z,13.20
2022-11-02T18:56:53.809Z,13.10
2022-11-02T18:59:20.989Z,13.10
2022-11-02T19:01:54.869Z,13.10
2022-11-02T19:04:35.929Z,13.00
2022-11-02T19:07:21.888Z,13.00
2022-11-02T19:09:57.419Z,12.90
2022-11-02T19:12:29.951Z,12.90
2022-11-02T19:15:03.757Z,12.90
2022-11-02T19:17:30.945Z,12.80
2022-11-02T19:20:04.869Z,12.80
2022-11-02T19:22:32.049Z,12.80
2022-11-02T19:25:07.765Z,12.80
2022-11-02T19:27:34.823Z,12.80
2022-11-02T19:30:11.819Z,12.80
2022-11-02T19:32:38.874Z,12.80
2022-11-02T19:35:12.836Z,12.70
2022-11-02T19:37:39.866Z,12.80
2022-11-02T19:40:13.771Z,12.70
2022-11-02T19:42:41.570Z,12.70
2022-11-02T19:45:22.829Z,12.70
2022-11-02T19:47:55.992Z,12.60
2022-11-02T19:50:30.945Z,12.60
2022-11-02T19:53:06.952Z,12.60
2022-11-02T19:55:34.261Z,12.70
2022-11-02T19:58:08.088Z,12.70
2022-11-02T20:00:35.370Z,12.70
2022-11-02T20:03:09.074Z,12.60
2022-11-02T20:05:37.329Z,12.60
2022-11-02T20:08:11.839Z,12.60
2022-11-02T20:10:38.885Z,12.60
2022-11-02T20:13:12.844Z,12.50
2022-11-02T20:15:40.691Z,12.50
2022-11-02T20:18:19.387Z,12.50
2022-11-02T20:20:47.024Z,12.50
2022-11-02T20:23:20.767Z,12.40
2022-11-02T20:25:48.421Z,12.40
2022-11-02T20:28:21.795Z,12.30
2022-11-02T20:30:48.866Z,12.30
2022-11-02T20:33:22.923Z,12.30
2022-11-02T20:35:56.869Z,12.30
2022-11-02T20:38:24.090Z,12.30
2022-11-02T20:40:57.864Z,12.30
2022-11-02T20:43:31.886Z,12.40
2022-11-02T20:46:31.591Z,12.30
2022-11-02T20:49:13.729Z,12.30
2022-11-02T20:51:51.223Z,12.30
2022-11-02T20:54:25.811Z,12.30
2022-11-02T20:56:59.814Z,12.30
2022-11-02T20:59:27.434Z,12.30
2022-11-02T21:02:00.847Z,12.30
2022-11-02T21:04:47.828Z,12.30
2022-11-02T21:07:14.989Z,12.20
2022-11-02T21:09:42.100Z,12.30
2022-11-02T21:12:43.633Z,12.30
2022-11-02T21:15:10.884Z,12.40
2022-11-02T21:17:45.610Z,12.40
2022-11-02T21:20:33.646Z,12.30
2022-11-02T21:23:11.784Z,12.30
2022-11-02T21:25:45.870Z,12.20
2022-11-02T21:28:13.045Z,12.20
2022-11-02T21:30:46.829Z,12.20
2022-11-02T21:33:13.925Z,12.20
2022-11-02T21:35:47.846Z,12.20
2022-11-02T21:38:21.843Z,12.20
2022-11-02T21:40:48.914Z,12.20
2022-11-02T21:43:22.824Z,12.10
2022-11-02T21:45:54.686Z,12.00
2022-11-02T21:51:06.311Z,11.90
2022-11-02T21:53:41.792Z,11.80
2022-11-02T21:56:14.783Z,11.80
2022-11-02T21:58:48.791Z,11.80
2022-11-02T22:01:37.462Z,11.80
2022-11-02T22:04:19.793Z,11.80
2022-11-02T22:06:53.932Z,11.80
2022-11-02T22:09:28.819Z,11.70
2022-11-02T22:12:21.809Z,11.80
2022-11-02T22:14:48.982Z,11.80
2022-11-02T22:17:47.972Z,11.80
2022-11-02T22:20:10.383Z,11.90
2022-11-02T22:22:43.812Z,11.90
2022-11-02T22:25:17.871Z,11.90
2022-11-02T22:27:51.832Z,11.80
2022-11-02T22:30:26.803Z,11.70
2022-11-02T22:32:54.919Z,11.70
2022-11-02T22:35:28.879Z,11.70
2022-11-02T22:38:20.827Z,11.60
2022-11-02T22:40:48.511Z,11.60
2022-11-02T22:43:21.751Z,11.60
2022-11-02T22:45:48.841Z,11.70
2022-11-02T22:48:22.813Z,11.70
2022-11-02T22:50:56.929Z,11.70
2022-11-02T22:53:28.838Z,11.70
2022-11-02T22:56:09.934Z,11.60
2022-11-02T22:58:37.406Z,11.60
2022-11-02T23:01:11.881Z,11.50
2022-11-02T23:03:59.986Z,11.50
2022-11-02T23:06:33.806Z,11.50
2022-11-02T23:09:01.666Z,11.50
2022-11-02T23:11:42.893Z,11.50
2022-11-02T23:14:15.529Z,11.50
2022-11-02T23:16:54.883Z,11.50
2022-11-02T23:19:31.268Z,11.50
2022-11-02T23:22:17.332Z,11.40
2022-11-02T23:25:13.072Z,11.30
2022-11-02T23:28:12.879Z,11.20
2022-11-02T23:31:05.906Z,11.10
2022-11-02T23:33:42.834Z,11.10
2022-11-02T23:36:19.814Z,11.10
2022-11-02T23:39:07.454Z,11.10
2022-11-02T23:41:45.867Z,11.10
2022-11-02T23:44:20.849Z,11.00
2022-11-02T23:46:49.331Z,11.00
2022-11-02T23:49:24.823Z,10.90
2022-11-02T23:52:10.520Z,10.80
2022-11-02T23:55:02.799Z,10.80
2022-11-02T23:57:30.618Z,10.80
